createdAt,value
2018-05-04T00:01:19.112Z,26.73
2018-05-04T00:03:47.615Z,26.53
2018-05-04T00:06:15.167Z,30.97
2018-05-04T00:08:43.484Z,30.97
2018-05-04T00:11:11.038Z,35.33
2018-05-04T00:13:38.714Z,27.70
2018-05-04T00:16:06.258Z,30.60
2018-05-04T00:18:33.809Z,32.90
2018-05-04T00:21:01.422Z,27.27
2018-05-04T00:23:29.870Z,27.57
2018-05-04T00:25:58.307Z,28.53
2018-05-04T00:28:26.011Z,27.60
2018-05-04T00:30:53.654Z,28.63
2018-05-04T00:33:21.204Z,25.43
2018-05-04T00:35:49.403Z,29.90
2018-05-04T00:38:16.952Z,29.70
2018-05-04T00:40:44.655Z,28.03
2018-05-04T00:43:12.290Z,28.90
2018-05-04T00:45:39.858Z,27.10
2018-05-04T00:48:08.380Z,26.93
2018-05-04T00:50:36.601Z,29.73
2018-05-04T00:53:04.138Z,25.53
2018-05-04T00:55:33.321Z,28.10
2018-05-04T00:58:00.871Z,29.23
2018-05-04T01:00:29.000Z,28.37
2018-05-04T01:02:56.597Z,28.77
2018-05-04T01:05:24.164Z,28.93
2018-05-04T01:07:53.296Z,27.87
2018-05-04T01:10:21.114Z,32.10
2018-05-04T01:12:48.679Z,27.60
2018-05-04T01:15:17.735Z,32.10
2018-05-04T01:17:45.286Z,30.57
2018-05-04T01:20:13.698Z,26.70
2018-05-04T01:22:41.235Z,28.13
2018-05-04T01:25:08.876Z,29.23
2018-05-04T01:27:36.493Z,31.60
2018-05-04T01:30:04.108Z,29.33
2018-05-04T01:32:31.671Z,29.23
2018-05-04T01:34:59.205Z,30.23
2018-05-04T01:37:27.602Z,30.47
2018-05-04T01:39:55.204Z,29.90
2018-05-04T01:42:22.765Z,32.33
2018-05-04T01:44:50.460Z,29.63
2018-05-04T01:47:17.994Z,32.80
2018-05-04T01:49:45.595Z,32.80
2018-05-04T01:52:13.162Z,28.70
2018-05-04T01:54:41.402Z,29.70
2018-05-04T01:57:09.722Z,27.03
2018-05-04T01:59:37.282Z,27.80
2018-05-04T02:02:04.859Z,26.83
2018-05-04T02:04:32.548Z,30.20
2018-05-04T02:07:00.289Z,30.83
2018-05-04T02:09:27.824Z,27.10
2018-05-04T02:11:56.350Z,27.80
2018-05-04T02:14:23.968Z,25.33
2018-05-04T02:16:51.519Z,29.30
2018-05-04T02:19:19.902Z,27.57
2018-05-04T02:21:47.557Z,26.67
2018-05-04T02:24:15.141Z,28.53
2018-05-04T02:26:43.278Z,27.20
2018-05-04T02:29:10.824Z,28.13
2018-05-04T02:31:38.425Z,30.17
2018-05-04T02:34:05.958Z,32.93
2018-05-04T02:36:34.123Z,27.07
2018-05-04T02:39:01.732Z,29.07
2018-05-04T02:41:29.362Z,27.83
2018-05-04T02:43:56.942Z,26.83
2018-05-04T02:46:24.489Z,26.83
2018-05-04T02:48:52.903Z,29.77
2018-05-04T02:51:20.515Z,30.10
2018-05-04T02:53:48.092Z,28.57
2018-05-04T02:56:16.589Z,26.73
2018-05-04T02:58:44.254Z,31.73
2018-05-04T03:01:12.742Z,28.33
2018-05-04T03:03:40.288Z,28.37
2018-05-04T03:19:03.491Z,26.27
2018-05-04T03:21:31.095Z,26.07
2018-05-04T03:23:58.664Z,30.17
2018-05-04T03:26:26.292Z,26.20
2018-05-04T03:28:54.009Z,30.30
2018-05-04T03:31:21.558Z,26.13
2018-05-04T03:33:49.144Z,25.77
2018-05-04T03:36:17.306Z,28.83
2018-05-04T03:38:45.769Z,26.80
2018-05-04T03:41:13.778Z,26.33
2018-05-04T03:43:41.365Z,29.00
2018-05-04T03:46:10.397Z,27.27
2018-05-04T03:48:38.268Z,27.57
2018-05-04T03:51:06.462Z,25.60
2018-05-04T03:53:34.037Z,26.27
2018-05-04T03:56:01.593Z,25.37
2018-05-04T03:58:41.010Z,25.90
2018-05-04T04:01:20.507Z,26.90
2018-05-04T04:03:59.898Z,26.17
2018-05-04T04:06:27.511Z,26.87
2018-05-04T04:08:55.067Z,26.40
2018-05-04T04:11:23.633Z,27.03
2018-05-04T04:13:51.174Z,26.47
2018-05-04T04:16:18.750Z,26.90
2018-05-04T04:18:46.363Z,27.10
2018-05-04T04:21:14.668Z,26.07
2018-05-04T04:23:42.928Z,26.20
2018-05-04T04:26:11.589Z,26.43
2018-05-04T04:28:39.968Z,27.43
2018-05-04T04:31:07.680Z,27.03
2018-05-04T04:33:35.243Z,27.67
2018-05-04T04:36:02.810Z,26.40
2018-05-04T04:38:30.409Z,26.53
2018-05-04T04:40:58.263Z,26.27
2018-05-04T04:43:26.561Z,25.97
2018-05-04T04:45:54.142Z,26.90
2018-05-04T04:48:22.623Z,26.97
2018-05-04T04:50:51.285Z,23.97
2018-05-04T04:53:20.361Z,25.50
2018-05-04T04:55:47.900Z,26.03
2018-05-04T04:58:16.265Z,23.53
2018-05-04T05:00:44.212Z,25.97
2018-05-04T05:03:11.793Z,26.83
2018-05-04T05:05:40.029Z,25.77
2018-05-04T05:08:07.600Z,27.50
2018-05-04T05:10:35.491Z,28.07
2018-05-04T05:13:03.052Z,26.30
2018-05-04T05:15:30.803Z,29.27
2018-05-04T05:17:59.273Z,28.40
2018-05-04T05:20:27.240Z,28.77
2018-05-04T05:22:54.835Z,26.87
2018-05-04T05:25:22.451Z,31.03
2018-05-04T05:27:50.751Z,26.00
2018-05-04T05:30:18.521Z,26.07
2018-05-04T05:32:46.202Z,26.03
2018-05-04T05:35:13.893Z,27.23
2018-05-04T05:37:44.510Z,27.47
2018-05-04T05:40:13.980Z,29.80
2018-05-04T05:42:41.518Z,26.77
2018-05-04T05:45:09.125Z,26.10
2018-05-04T05:47:36.700Z,26.23
2018-05-04T05:50:04.757Z,26.10
2018-05-04T05:52:32.318Z,26.60
2018-05-04T05:54:59.853Z,27.20
2018-05-04T05:57:28.335Z,25.27
2018-05-04T05:59:56.821Z,24.53
2018-05-04T06:02:24.494Z,30.40
2018-05-04T06:04:52.809Z,24.90
2018-05-04T06:07:21.838Z,25.17
2018-05-04T06:09:49.631Z,25.80
2018-05-04T06:12:20.150Z,25.70
2018-05-04T06:14:48.218Z,26.70
2018-05-04T06:17:15.781Z,26.00
2018-05-04T06:19:43.329Z,25.93
2018-05-04T06:22:12.657Z,25.50
2018-05-04T06:24:40.224Z,25.93
2018-05-04T06:27:07.828Z,29.10
2018-05-04T06:29:36.137Z,26.20
2018-05-04T06:32:04.398Z,29.80
2018-05-04T06:34:32.399Z,26.87
2018-05-04T06:36:59.961Z,25.90
2018-05-04T06:39:27.522Z,25.50
2018-05-04T06:41:55.904Z,29.00
2018-05-04T06:44:23.498Z,23.17
2018-05-04T06:46:51.055Z,26.70
2018-05-04T06:49:19.330Z,29.27
2018-05-04T06:51:46.891Z,25.47
2018-05-04T06:54:14.471Z,26.30
2018-05-04T06:56:42.826Z,28.93
2018-05-04T06:59:10.623Z,25.53
2018-05-04T07:01:39.103Z,25.60
2018-05-04T07:04:06.664Z,26.37
2018-05-04T07:06:34.222Z,25.77
2018-05-04T07:09:02.688Z,23.07
2018-05-04T07:11:30.263Z,28.40
2018-05-04T07:13:57.956Z,34.40
2018-05-04T07:16:25.746Z,22.77
2018-05-04T07:18:53.329Z,27.43
2018-05-04T07:21:20.967Z,25.60
2018-05-04T07:23:48.719Z,24.37
2018-05-04T07:26:17.121Z,25.07
2018-05-04T07:28:44.783Z,23.13
2018-05-04T07:31:12.920Z,23.53
2018-05-04T07:33:40.503Z,26.30
2018-05-04T07:36:08.268Z,25.10
2018-05-04T07:38:35.831Z,25.13
2018-05-04T07:41:03.381Z,23.77
2018-05-04T07:43:32.274Z,28.43
2018-05-04T07:46:00.219Z,26.33
2018-05-04T07:48:27.794Z,23.57
2018-05-04T07:50:55.347Z,22.90
2018-05-04T07:53:23.069Z,25.13
2018-05-04T07:55:51.087Z,23.90
2018-05-04T07:58:18.714Z,22.87
2018-05-04T08:00:47.014Z,24.57
2018-05-04T08:03:14.829Z,20.80
2018-05-04T08:05:42.425Z,24.33
2018-05-04T08:08:09.978Z,22.67
2018-05-04T08:10:37.683Z,28.90
2018-05-04T08:13:05.285Z,23.33
2018-05-04T08:15:32.845Z,24.63
2018-05-04T08:18:00.378Z,24.67
2018-05-04T08:20:28.206Z,24.40
2018-05-04T08:22:55.849Z,23.93
2018-05-04T08:25:23.408Z,25.10
2018-05-04T08:27:51.091Z,24.60
2018-05-04T08:30:19.157Z,22.93
2018-05-04T08:32:46.706Z,24.03
2018-05-04T08:35:14.821Z,25.20
2018-05-04T08:37:43.221Z,24.80
2018-05-04T08:40:10.978Z,24.20
2018-05-04T08:42:38.607Z,23.83
2018-05-04T08:45:06.141Z,24.27
2018-05-04T08:47:34.498Z,24.57
2018-05-04T08:50:02.033Z,24.97
2018-05-04T08:52:29.615Z,26.63
2018-05-04T08:54:58.208Z,31.93
2018-05-04T08:57:26.815Z,26.23
2018-05-04T08:59:54.341Z,26.17
2018-05-04T09:02:21.911Z,24.73
2018-05-04T09:04:50.994Z,26.33
2018-05-04T09:07:19.539Z,23.60
2018-05-04T09:09:47.103Z,25.70
2018-05-04T09:12:14.721Z,23.07
2018-05-04T09:14:43.053Z,23.07
2018-05-04T09:17:10.632Z,24.03
2018-05-04T09:19:38.501Z,29.60
2018-05-04T09:22:06.083Z,29.00
2018-05-04T09:24:33.728Z,23.27
2018-05-04T09:27:01.289Z,26.50
2018-05-04T09:29:28.944Z,23.87
2018-05-04T09:31:56.621Z,23.43
2018-05-04T09:34:24.193Z,24.30
2018-05-04T09:36:52.552Z,22.77
2018-05-04T09:39:20.124Z,22.83
2018-05-04T09:41:50.678Z,26.90
2018-05-04T09:44:19.149Z,26.57
2018-05-04T09:46:48.241Z,23.57
2018-05-04T09:49:16.550Z,27.10
2018-05-04T09:51:44.161Z,24.53
2018-05-04T09:54:11.827Z,24.97
2018-05-04T09:56:39.422Z,25.20
2018-05-04T09:59:07.759Z,22.80
2018-05-04T10:01:35.381Z,26.10
2018-05-04T10:04:03.856Z,27.10
2018-05-04T10:06:32.432Z,22.53
2018-05-04T10:21:55.091Z,27.30
2018-05-04T10:24:23.386Z,25.97
2018-05-04T10:26:50.944Z,27.70
2018-05-04T10:29:19.517Z,24.37
2018-05-04T10:31:47.053Z,24.47
2018-05-04T10:34:15.417Z,24.70
2018-05-04T10:36:42.970Z,25.07
2018-05-04T10:39:10.721Z,22.97
2018-05-04T10:41:38.369Z,26.07
2018-05-04T10:44:05.915Z,28.40
2018-05-04T10:46:33.589Z,23.07
2018-05-04T10:49:01.106Z,22.77
2018-05-04T10:51:28.683Z,22.43
2018-05-04T10:53:57.437Z,23.30
2018-05-04T10:56:25.805Z,24.33
2018-05-04T10:58:53.341Z,24.60
2018-05-04T11:01:20.901Z,25.90
2018-05-04T11:03:48.546Z,26.50
2018-05-04T11:06:17.798Z,24.13
2018-05-04T11:08:46.386Z,26.80
2018-05-04T11:11:14.048Z,25.60
2018-05-04T11:13:42.215Z,29.87
2018-05-04T11:16:09.858Z,23.37
2018-05-04T11:18:37.396Z,23.47
2018-05-04T11:21:05.075Z,23.93
2018-05-04T11:23:32.673Z,29.00
2018-05-04T11:26:00.299Z,30.80
2018-05-04T11:28:27.897Z,26.37
2018-05-04T11:30:55.504Z,25.27
2018-05-04T11:33:23.322Z,25.00
2018-05-04T11:35:51.937Z,24.67
2018-05-04T11:38:19.519Z,26.10
2018-05-04T11:40:47.090Z,24.00
2018-05-04T11:43:15.263Z,27.50
2018-05-04T11:45:45.170Z,26.03
2018-05-04T11:48:13.542Z,26.00
2018-05-04T11:50:41.180Z,24.90
2018-05-04T11:53:08.713Z,27.27
2018-05-04T11:55:36.273Z,23.30
2018-05-04T11:58:03.868Z,24.80
2018-05-04T12:00:31.483Z,23.50
2018-05-04T12:02:59.869Z,25.23
2018-05-04T12:05:27.476Z,25.37
2018-05-04T12:07:55.029Z,24.53
2018-05-04T12:10:23.311Z,22.90
2018-05-04T12:12:50.992Z,25.80
2018-05-04T12:15:18.589Z,24.50
2018-05-04T12:17:46.146Z,22.77
2018-05-04T12:20:14.419Z,24.30
2018-05-04T12:22:42.000Z,28.87
2018-05-04T12:25:09.591Z,23.70
2018-05-04T12:27:37.195Z,21.20
2018-05-04T12:30:05.582Z,26.63
2018-05-04T12:32:33.905Z,26.30
2018-05-04T12:35:01.451Z,27.33
2018-05-04T12:37:29.105Z,22.47
2018-05-04T12:39:56.796Z,22.50
2018-05-04T12:42:24.414Z,28.30
2018-05-04T12:44:52.732Z,28.77
2018-05-04T12:47:21.120Z,26.07
2018-05-04T12:49:50.138Z,22.03
2018-05-04T12:52:17.769Z,19.43
2018-05-04T12:54:45.305Z,23.97
2018-05-04T12:57:13.092Z,22.50
2018-05-04T12:59:42.099Z,21.23
2018-05-04T13:02:13.296Z,22.10
2018-05-04T13:04:40.948Z,18.77
2018-05-04T13:07:08.487Z,20.73
2018-05-04T13:09:36.048Z,21.23
2018-05-04T13:12:03.680Z,21.83
2018-05-04T13:14:31.342Z,24.73
2018-05-04T13:16:59.000Z,18.80
2018-05-04T13:19:26.755Z,20.13
2018-05-04T13:21:54.328Z,24.47
2018-05-04T13:24:21.873Z,23.10
2018-05-04T13:26:49.646Z,19.37
2018-05-04T13:29:17.200Z,18.03
2018-05-04T13:31:44.791Z,19.10
2018-05-04T13:34:12.741Z,17.33
2018-05-04T13:36:40.559Z,19.30
2018-05-04T13:39:08.134Z,19.10
2018-05-04T13:41:35.681Z,18.60
2018-05-04T13:44:03.391Z,19.10
2018-05-04T13:46:30.952Z,16.20
2018-05-04T13:48:58.492Z,15.00
2018-05-04T13:51:26.176Z,18.50
2018-05-04T13:53:53.713Z,17.20
2018-05-04T13:56:21.744Z,16.93
2018-05-04T13:58:49.277Z,15.40
2018-05-04T14:01:31.870Z,20.50
2018-05-04T14:03:59.450Z,18.77
2018-05-04T14:06:27.334Z,17.30
2018-05-04T14:08:54.970Z,15.83
2018-05-04T14:11:22.570Z,15.40
2018-05-04T14:13:50.148Z,16.70
2018-05-04T14:16:18.590Z,26.00
2018-05-04T14:18:46.180Z,17.97
2018-05-04T14:21:14.513Z,16.07
2018-05-04T14:23:43.040Z,15.47
2018-05-04T14:26:10.781Z,13.43
2018-05-04T14:28:38.382Z,18.97
2018-05-04T14:31:05.916Z,13.93
2018-05-04T14:33:33.466Z,22.90
2018-05-04T14:36:01.030Z,18.27
2018-05-04T14:38:28.570Z,14.40
2018-05-04T14:40:56.276Z,14.67
2018-05-04T14:43:23.862Z,14.63
2018-05-04T14:45:51.438Z,20.97
2018-05-04T14:48:26.807Z,18.30
2018-05-04T14:50:54.399Z,17.60
2018-05-04T14:53:21.930Z,14.17
2018-05-04T14:55:49.629Z,13.73
2018-05-04T14:58:18.070Z,16.90
2018-05-04T15:00:45.642Z,15.20
2018-05-04T15:03:13.444Z,15.00
2018-05-04T15:05:41.139Z,15.70
2018-05-04T15:08:08.758Z,18.83
2018-05-04T15:10:36.770Z,18.60
2018-05-04T15:13:04.396Z,14.80
2018-05-04T15:15:32.075Z,20.97
2018-05-04T15:17:59.723Z,14.33
2018-05-04T15:20:27.252Z,14.67
2018-05-04T15:22:56.017Z,17.93
2018-05-04T15:25:23.561Z,15.20
2018-05-04T15:27:51.231Z,14.73
2018-05-04T15:30:19.195Z,15.53
2018-05-04T15:32:48.143Z,14.33
2018-05-04T15:35:15.680Z,18.30
2018-05-04T15:37:43.263Z,17.10
2018-05-04T15:40:10.811Z,16.10
2018-05-04T15:42:38.841Z,15.43
2018-05-04T15:45:06.420Z,16.60
2018-05-04T15:47:33.986Z,16.47
2018-05-04T15:50:07.436Z,14.17
2018-05-04T15:52:35.073Z,14.80
2018-05-04T15:55:04.146Z,14.93
2018-05-04T15:57:32.083Z,13.60
2018-05-04T15:59:59.688Z,16.90
2018-05-04T16:02:27.322Z,14.93
2018-05-04T16:04:55.005Z,11.73
2018-05-04T16:07:22.551Z,18.83
2018-05-04T16:09:51.057Z,13.73
2018-05-04T16:12:18.591Z,12.60
2018-05-04T16:14:47.010Z,12.43
2018-05-04T16:17:15.310Z,13.87
2018-05-04T16:19:42.925Z,10.93
2018-05-04T16:22:10.527Z,10.07
2018-05-04T16:24:38.189Z,13.73
2018-05-04T16:27:05.753Z,13.53
2018-05-04T16:29:33.321Z,9.87
2018-05-04T16:32:01.059Z,11.30
2018-05-04T16:34:29.370Z,11.80
2018-05-04T16:36:56.929Z,14.43
2018-05-04T16:39:24.489Z,9.93
2018-05-04T16:41:52.074Z,12.00
2018-05-04T16:44:19.699Z,17.93
2018-05-04T16:46:52.891Z,12.50
2018-05-04T16:49:25.548Z,9.90
2018-05-04T16:51:53.066Z,13.60
2018-05-04T16:54:21.108Z,12.33
2018-05-04T16:56:48.732Z,12.20
2018-05-04T16:59:17.154Z,11.90
2018-05-04T17:01:44.751Z,19.30
2018-05-04T17:04:12.302Z,13.93
2018-05-04T17:06:39.910Z,14.37
2018-05-04T17:09:09.120Z,13.00
2018-05-04T17:11:36.664Z,17.63
2018-05-04T17:14:04.237Z,15.00
2018-05-04T17:16:32.563Z,20.63
2018-05-04T17:19:00.318Z,20.00
2018-05-04T17:21:27.901Z,24.40
2018-05-04T17:23:55.458Z,16.90
2018-05-04T17:26:23.090Z,19.73
2018-05-04T17:28:51.591Z,22.53
2018-05-04T17:31:19.158Z,18.23
2018-05-04T17:33:46.717Z,19.50
2018-05-04T17:36:14.559Z,26.13
2018-05-04T17:38:42.176Z,27.53
2018-05-04T17:41:09.734Z,19.87
2018-05-04T17:43:38.102Z,21.40
2018-05-04T17:46:07.009Z,18.70
2018-05-04T17:48:35.331Z,20.00
2018-05-04T17:51:02.889Z,19.93
2018-05-04T17:53:30.425Z,20.57
2018-05-04T17:55:58.041Z,21.03
2018-05-04T17:58:25.637Z,20.20
2018-05-04T18:00:54.531Z,25.10
2018-05-04T18:03:22.868Z,27.43
2018-05-04T18:05:50.819Z,22.20
2018-05-04T18:08:33.959Z,23.20
2018-05-04T18:11:01.494Z,23.77
2018-05-04T18:13:29.056Z,25.27
2018-05-04T18:15:56.617Z,26.67
2018-05-04T18:18:24.489Z,29.87
2018-05-04T18:20:52.045Z,27.33
2018-05-04T18:23:20.487Z,25.67
2018-05-04T18:25:48.049Z,28.17
2018-05-04T18:28:16.689Z,26.77
2018-05-04T18:30:44.253Z,27.80
2018-05-04T18:33:11.794Z,24.43
2018-05-04T18:35:39.615Z,35.10
2018-05-04T18:38:08.281Z,24.20
2018-05-04T18:40:35.801Z,24.83
2018-05-04T18:43:03.423Z,27.20
2018-05-04T18:45:31.927Z,26.90
2018-05-04T18:47:59.515Z,32.23
2018-05-04T18:50:27.090Z,29.20
2018-05-04T18:52:54.642Z,26.67
2018-05-04T18:55:22.857Z,26.73
2018-05-04T18:57:51.238Z,33.23
2018-05-04T19:00:19.018Z,28.83
2018-05-04T19:02:52.526Z,34.80
2018-05-04T19:05:20.162Z,27.60
2018-05-04T19:07:47.699Z,30.10
2018-05-04T19:10:15.493Z,27.37
2018-05-04T19:12:43.040Z,39.23
2018-05-04T19:15:10.638Z,33.73
2018-05-04T19:17:38.239Z,34.07
2018-05-04T19:20:05.968Z,30.67
2018-05-04T19:22:33.569Z,31.80
2018-05-04T19:25:01.234Z,29.40
2018-05-04T19:27:30.350Z,33.60
2018-05-04T19:29:58.220Z,30.40
2018-05-04T19:32:28.339Z,32.93
2018-05-04T19:46:28.942Z,30.37
2018-05-04T19:48:56.636Z,36.87
2018-05-04T19:51:24.213Z,33.83
2018-05-04T19:53:51.847Z,33.87
2018-05-04T19:56:20.155Z,33.87
2018-05-04T19:58:47.800Z,29.93
2018-05-04T20:01:15.296Z,34.03
2018-05-04T20:03:42.938Z,34.67
2018-05-04T20:06:10.548Z,40.20
2018-05-04T20:08:38.137Z,38.70
2018-05-04T20:11:05.671Z,36.80
2018-05-04T20:13:33.245Z,36.27
2018-05-04T20:16:01.812Z,35.83
2018-05-04T20:18:29.600Z,33.00
2018-05-04T20:20:57.218Z,33.70
2018-05-04T20:23:24.804Z,38.10
2018-05-04T20:25:52.370Z,35.10
2018-05-04T20:28:19.976Z,33.30
2018-05-04T20:30:47.521Z,32.17
2018-05-04T20:33:15.193Z,36.77
2018-05-04T20:35:42.749Z,36.17
2018-05-04T20:38:10.397Z,31.83
2018-05-04T20:40:38.413Z,32.77
2018-05-04T20:43:06.000Z,32.73
2018-05-04T20:45:34.409Z,32.83
2018-05-04T20:48:01.998Z,32.93
2018-05-04T20:50:29.736Z,32.50
2018-05-04T20:52:57.313Z,31.53
2018-05-04T20:55:24.846Z,34.80
2018-05-04T20:57:52.493Z,31.70
2018-05-04T21:00:20.966Z,32.13
2018-05-04T21:02:48.611Z,32.20
2018-05-04T21:05:16.170Z,38.40
2018-05-04T21:07:43.834Z,36.47
2018-05-04T21:10:11.660Z,32.70
2018-05-04T21:12:39.221Z,33.37
2018-05-04T21:15:06.802Z,32.80
2018-05-04T21:17:34.393Z,31.90
2018-05-04T21:20:01.956Z,34.13
2018-05-04T21:22:29.570Z,36.50
2018-05-04T21:34:42.141Z,37.70
2018-05-04T21:37:09.796Z,35.60
2018-05-04T21:39:37.345Z,34.83
2018-05-04T21:42:04.954Z,36.80
2018-05-04T21:44:32.622Z,31.70
2018-05-04T21:47:00.150Z,29.83
2018-05-04T21:49:27.734Z,30.67
2018-05-04T21:51:55.261Z,31.20
2018-05-04T21:54:22.823Z,32.73
2018-05-04T21:56:50.428Z,30.80
2018-05-04T21:59:17.973Z,30.83
2018-05-04T22:01:45.741Z,29.20
2018-05-04T22:04:13.287Z,29.67
2018-05-04T22:06:40.873Z,31.00
2018-05-04T22:09:09.013Z,29.97
2018-05-04T22:11:36.579Z,29.23
2018-05-04T22:14:04.130Z,30.37
2018-05-04T22:16:31.751Z,28.63
2018-05-04T22:19:00.117Z,30.43
2018-05-04T22:21:27.660Z,26.80
2018-05-04T22:23:55.257Z,29.07
2018-05-04T22:26:23.623Z,29.50
2018-05-04T22:28:52.937Z,28.27
2018-05-04T22:31:21.266Z,28.07
2018-05-04T22:33:48.802Z,33.23
2018-05-04T22:36:16.376Z,25.60
2018-05-04T22:38:44.651Z,29.60
2018-05-04T22:41:12.255Z,24.97
2018-05-04T22:43:39.816Z,26.80
2018-05-04T22:46:08.446Z,35.40
2018-05-04T22:48:36.013Z,29.57
2018-05-04T22:51:03.621Z,24.70
2018-05-04T22:53:31.185Z,24.80
2018-05-04T22:55:59.154Z,26.40
2018-05-04T22:58:26.699Z,24.13
2018-05-04T23:00:54.989Z,30.53
2018-05-04T23:03:22.558Z,26.23
2018-05-04T23:05:50.311Z,23.90
2018-05-04T23:17:57.898Z,27.17
2018-05-04T23:20:25.449Z,24.17
2018-05-04T23:22:53.010Z,24.57
2018-05-04T23:25:20.903Z,24.20
2018-05-04T23:27:48.444Z,24.37
2018-05-04T23:30:17.633Z,25.33
2018-05-04T23:32:45.295Z,24.53
2018-05-04T23:35:12.843Z,22.60
2018-05-04T23:37:40.398Z,22.90
2018-05-04T23:40:08.026Z,23.43
2018-05-04T23:42:35.593Z,25.37
2018-05-04T23:45:03.652Z,23.93
2018-05-04T23:47:31.353Z,23.93
2018-05-04T23:49:58.987Z,23.20
2018-05-04T23:52:26.528Z,23.40
2018-05-04T23:54:54.110Z,25.20
2018-05-04T23:57:21.775Z,24.23
2018-05-04T23:59:49.338Z,23.90
